createdAt,value
2017-10-03T00:00:16.985Z,33.27
2017-10-03T00:02:45.514Z,25.37
2017-10-03T00:05:12.829Z,35.40
2017-10-03T00:07:39.954Z,35.73
2017-10-03T00:10:08.180Z,32.27
2017-10-03T00:12:35.039Z,23.67
2017-10-03T00:15:04.332Z,27.07
2017-10-03T00:17:31.232Z,31.00
2017-10-03T00:19:58.048Z,20.40
2017-10-03T00:22:25.834Z,34.83
2017-10-03T00:24:53.528Z,22.87
2017-10-03T00:27:20.403Z,30.30
2017-10-03T00:29:47.278Z,23.43
2017-10-03T00:32:14.205Z,36.93
2017-10-03T00:34:42.484Z,20.50
2017-10-03T00:37:10.065Z,23.27
2017-10-03T00:39:36.988Z,24.23
2017-10-03T00:42:04.166Z,23.70
2017-10-03T00:44:31.106Z,24.67
2017-10-03T00:46:58.331Z,26.33
2017-10-03T00:49:26.081Z,26.70
2017-10-03T00:51:53.770Z,29.83
2017-10-03T00:54:21.486Z,27.20
2017-10-03T00:56:49.122Z,25.40
2017-10-03T00:59:16.066Z,21.70
2017-10-03T01:01:42.983Z,27.17
2017-10-03T01:04:09.813Z,20.97
2017-10-03T01:06:36.724Z,18.73
2017-10-03T01:09:05.084Z,21.73
2017-10-03T01:11:31.968Z,20.10
2017-10-03T01:13:59.613Z,19.07
2017-10-03T01:16:26.462Z,16.77
2017-10-03T01:18:53.326Z,16.33
2017-10-03T01:21:20.245Z,19.63
2017-10-03T01:23:47.976Z,10.57
2017-10-03T01:26:14.903Z,15.77
2017-10-03T01:28:42.188Z,21.93
2017-10-03T01:31:08.996Z,20.17
2017-10-03T01:33:35.833Z,13.63
2017-10-03T01:36:02.670Z,22.53
2017-10-03T01:38:29.512Z,14.00
2017-10-03T01:40:56.446Z,15.40
2017-10-03T01:43:23.291Z,23.90
2017-10-03T01:45:50.195Z,19.50
2017-10-03T01:48:17.797Z,17.23
2017-10-03T01:50:44.671Z,16.47
2017-10-03T01:53:11.658Z,11.77
2017-10-03T01:55:38.535Z,12.57
2017-10-03T01:58:05.371Z,11.57
2017-10-03T02:00:32.159Z,8.73
2017-10-03T02:02:59.010Z,10.60
2017-10-03T02:05:25.842Z,10.07
2017-10-03T02:07:52.636Z,9.30
2017-10-03T02:10:19.533Z,10.93
2017-10-03T02:12:46.364Z,5.27
2017-10-03T02:15:13.208Z,8.13
2017-10-03T02:17:40.024Z,7.43
2017-10-03T02:20:06.830Z,12.60
2017-10-03T02:22:33.758Z,10.00
2017-10-03T02:25:00.604Z,8.87
2017-10-03T02:27:27.434Z,9.57
2017-10-03T02:29:54.998Z,12.90
2017-10-03T02:32:21.875Z,14.13
2017-10-03T02:34:49.448Z,6.77
2017-10-03T02:37:16.360Z,8.33
2017-10-03T02:39:43.190Z,12.07
2017-10-03T02:42:10.843Z,10.57
2017-10-03T02:44:37.663Z,12.43
2017-10-03T02:47:04.500Z,15.97
2017-10-03T02:49:31.342Z,11.67
2017-10-03T02:51:58.921Z,16.83
2017-10-03T02:54:26.554Z,16.13
2017-10-03T02:56:53.373Z,18.63
2017-10-03T02:59:21.031Z,22.70
2017-10-03T03:01:48.681Z,21.60
2017-10-03T03:04:15.529Z,19.60
2017-10-03T03:06:42.515Z,19.63
2017-10-03T03:09:09.472Z,36.60
2017-10-03T03:11:36.316Z,27.30
2017-10-03T03:14:03.191Z,32.80
2017-10-03T03:16:30.087Z,35.13
2017-10-03T03:18:56.989Z,27.70
2017-10-03T03:21:23.835Z,27.50
2017-10-03T03:23:50.716Z,32.63
2017-10-03T03:26:17.594Z,36.40
2017-10-03T03:28:44.435Z,28.60
2017-10-03T03:31:11.248Z,32.13
2017-10-03T03:33:38.074Z,36.40
2017-10-03T03:36:04.901Z,31.87
2017-10-03T03:38:31.757Z,31.23
2017-10-03T03:40:59.362Z,29.03
2017-10-03T03:43:26.177Z,50.97
2017-10-03T03:45:53.163Z,38.13
2017-10-03T03:48:21.419Z,41.17
2017-10-03T03:50:48.228Z,32.27
2017-10-03T03:53:15.037Z,32.80
2017-10-03T03:55:41.879Z,30.30
2017-10-03T03:58:08.721Z,25.33
2017-10-03T04:00:35.603Z,27.80
2017-10-03T04:03:02.469Z,30.30
2017-10-03T04:05:29.296Z,34.57
2017-10-03T04:07:56.111Z,37.33
2017-10-03T04:10:22.892Z,30.23
2017-10-03T04:12:50.494Z,34.17
2017-10-03T04:15:17.353Z,29.13
2017-10-03T04:17:44.243Z,33.17
2017-10-03T04:20:11.134Z,32.93
2017-10-03T04:22:38.128Z,35.97
2017-10-03T04:25:04.961Z,31.73
2017-10-03T04:27:31.764Z,35.90
2017-10-03T04:29:58.593Z,36.67
2017-10-03T04:32:25.405Z,28.37
2017-10-03T04:34:52.214Z,29.07
2017-10-03T04:37:19.065Z,43.50
2017-10-03T04:39:45.907Z,35.33
2017-10-03T04:42:12.714Z,39.63
2017-10-03T04:44:39.530Z,39.47
2017-10-03T04:47:06.367Z,37.63
2017-10-03T04:49:33.223Z,37.93
2017-10-03T04:52:00.028Z,29.43
2017-10-03T04:54:26.850Z,40.20
2017-10-03T04:56:53.669Z,38.27
2017-10-03T04:59:21.246Z,41.50
2017-10-03T05:01:48.815Z,38.83
2017-10-03T05:04:15.674Z,35.60
2017-10-03T05:06:42.472Z,33.20
2017-10-03T05:09:09.315Z,27.97
2017-10-03T05:11:36.945Z,31.93
2017-10-03T05:14:03.765Z,30.17
2017-10-03T05:16:30.683Z,30.73
2017-10-03T05:18:57.606Z,28.67
2017-10-03T05:21:24.439Z,33.80
2017-10-03T05:23:52.077Z,37.30
2017-10-03T05:26:19.178Z,26.90
2017-10-03T05:28:46.793Z,33.23
2017-10-03T05:31:13.607Z,25.83
2017-10-03T05:33:40.508Z,34.43
2017-10-03T05:36:07.306Z,34.30
2017-10-03T05:38:34.189Z,26.73
2017-10-03T05:41:01.145Z,28.30
2017-10-03T05:43:27.935Z,25.77
2017-10-03T05:45:54.773Z,28.20
2017-10-03T05:48:21.631Z,27.77
2017-10-03T05:50:49.211Z,27.57
2017-10-03T05:53:16.024Z,26.47
2017-10-03T05:55:42.852Z,31.87
2017-10-03T05:58:10.470Z,40.97
2017-10-03T06:00:38.050Z,35.40
2017-10-03T06:03:04.864Z,32.27
2017-10-03T06:05:32.544Z,31.97
2017-10-03T06:08:00.134Z,25.23
2017-10-03T06:10:27.718Z,32.13
2017-10-03T06:12:54.580Z,32.80
2017-10-03T06:15:21.476Z,30.67
2017-10-03T06:17:49.087Z,30.83
2017-10-03T06:20:15.895Z,31.83
2017-10-03T06:22:42.716Z,27.23
2017-10-03T06:25:10.297Z,35.50
2017-10-03T06:27:37.899Z,32.07
2017-10-03T06:30:04.806Z,32.30
2017-10-03T06:32:31.674Z,44.60
2017-10-03T06:34:58.574Z,32.80
2017-10-03T06:37:25.446Z,29.93
2017-10-03T06:39:52.319Z,36.83
2017-10-03T06:42:19.105Z,34.53
2017-10-03T06:44:45.982Z,38.33
2017-10-03T06:47:14.157Z,37.47
2017-10-03T06:49:41.082Z,39.77
2017-10-03T06:52:07.942Z,44.80
2017-10-03T06:54:34.803Z,36.63
2017-10-03T06:57:01.619Z,37.47
2017-10-03T06:59:28.554Z,38.87
2017-10-03T07:01:55.415Z,30.77
2017-10-03T07:04:22.328Z,31.60
2017-10-03T07:06:49.213Z,40.37
2017-10-03T07:09:16.083Z,35.93
2017-10-03T07:11:42.985Z,42.47
2017-10-03T07:14:09.935Z,39.90
2017-10-03T07:16:36.750Z,38.20
2017-10-03T07:19:04.399Z,42.23
2017-10-03T07:21:31.303Z,35.57
2017-10-03T07:23:58.295Z,36.07
2017-10-03T07:26:25.331Z,33.80
2017-10-03T07:28:52.205Z,42.53
2017-10-03T07:31:20.375Z,38.70
2017-10-03T07:33:47.975Z,41.80
2017-10-03T07:36:14.892Z,39.13
2017-10-03T07:38:42.013Z,40.10
2017-10-03T07:41:08.886Z,39.93
2017-10-03T07:43:35.834Z,30.63
2017-10-03T07:46:02.705Z,31.00
2017-10-03T07:48:29.565Z,39.70
2017-10-03T07:50:56.431Z,31.77
2017-10-03T07:53:23.275Z,34.13
2017-10-03T07:55:50.505Z,25.10
2017-10-03T07:58:17.317Z,30.17
2017-10-03T08:00:44.242Z,31.97
2017-10-03T08:03:11.883Z,27.67
2017-10-03T08:05:38.768Z,30.23
2017-10-03T08:08:05.721Z,31.83
2017-10-03T08:10:33.857Z,27.90
2017-10-03T08:13:00.731Z,27.67
2017-10-03T08:15:27.620Z,26.30
2017-10-03T08:17:54.457Z,28.93
2017-10-03T08:20:21.312Z,20.87
2017-10-03T08:22:48.173Z,25.03
2017-10-03T08:25:15.009Z,26.50
2017-10-03T08:27:42.606Z,23.60
2017-10-03T08:30:09.520Z,28.07
2017-10-03T08:32:36.406Z,27.60
2017-10-03T08:35:03.997Z,20.20
2017-10-03T08:37:31.583Z,22.03
2017-10-03T08:39:58.462Z,19.20
2017-10-03T08:42:25.346Z,17.93
2017-10-03T08:44:52.228Z,22.10
2017-10-03T08:47:19.113Z,25.53
2017-10-03T08:49:46.711Z,18.23
2017-10-03T08:52:13.575Z,16.80
2017-10-03T08:54:40.426Z,21.43
2017-10-03T08:57:07.272Z,24.00
2017-10-03T08:59:34.845Z,23.47
2017-10-03T09:02:01.658Z,16.53
2017-10-03T09:04:28.492Z,15.60
2017-10-03T09:06:55.396Z,18.33
2017-10-03T09:09:22.223Z,14.73
2017-10-03T09:11:49.093Z,16.77
2017-10-03T09:14:15.968Z,19.70
2017-10-03T09:16:42.869Z,18.47
2017-10-03T09:19:09.691Z,15.67
2017-10-03T09:21:36.546Z,16.10
2017-10-03T09:24:03.402Z,18.83
2017-10-03T09:26:30.294Z,17.67
2017-10-03T09:28:57.156Z,16.10
2017-10-03T09:31:24.061Z,15.93
2017-10-03T09:33:50.939Z,21.30
2017-10-03T09:36:17.854Z,13.87
2017-10-03T09:38:44.733Z,14.60
2017-10-03T09:41:12.315Z,18.83
2017-10-03T09:56:41.841Z,14.63
2017-10-03T09:59:08.790Z,13.90
2017-10-03T10:01:35.632Z,11.23
2017-10-03T10:04:02.530Z,11.07
2017-10-03T10:06:29.468Z,13.40
2017-10-03T10:08:56.359Z,13.87
2017-10-03T10:11:23.176Z,14.40
2017-10-03T10:13:50.084Z,17.40
2017-10-03T10:16:16.964Z,13.53
2017-10-03T10:18:43.932Z,9.03
2017-10-03T10:21:10.799Z,11.03
2017-10-03T10:23:37.716Z,16.53
2017-10-03T10:26:05.281Z,12.47
2017-10-03T10:28:32.183Z,10.90
2017-10-03T10:30:59.070Z,10.25
2017-10-03T10:33:25.971Z,11.53
2017-10-03T10:35:52.835Z,7.77
2017-10-03T10:38:19.711Z,10.00
2017-10-03T10:40:46.547Z,12.63
2017-10-03T10:43:13.382Z,11.37
2017-10-03T10:45:40.976Z,9.63
2017-10-03T10:48:08.619Z,13.03
2017-10-03T10:50:35.436Z,14.97
2017-10-03T10:53:02.401Z,11.70
2017-10-03T10:55:29.219Z,18.47
2017-10-03T10:57:56.100Z,7.00
2017-10-03T11:00:22.950Z,12.13
2017-10-03T11:02:50.597Z,5.20
2017-10-03T11:05:17.451Z,12.40
2017-10-03T11:07:44.342Z,9.77
2017-10-03T11:10:11.171Z,8.97
2017-10-03T11:12:38.043Z,7.00
2017-10-03T11:15:04.905Z,9.60
2017-10-03T11:17:31.879Z,10.67
2017-10-03T11:19:58.726Z,11.13
2017-10-03T11:22:25.731Z,14.03
2017-10-03T11:24:53.502Z,12.40
2017-10-03T11:27:20.383Z,8.77
2017-10-03T11:29:47.578Z,18.53
2017-10-03T11:32:14.837Z,10.80
2017-10-03T11:34:41.694Z,10.50
2017-10-03T11:37:08.569Z,10.73
2017-10-03T11:39:35.522Z,16.17
2017-10-03T11:42:02.389Z,10.53
2017-10-03T11:44:29.245Z,9.17
2017-10-03T11:46:56.080Z,12.07
2017-10-03T11:49:24.401Z,9.97
2017-10-03T11:51:52.925Z,11.30
2017-10-03T11:54:22.443Z,9.43
2017-10-03T11:56:49.714Z,8.83
2017-10-03T11:59:16.914Z,9.77
2017-10-03T12:01:45.075Z,7.60
2017-10-03T12:04:14.523Z,10.18
2017-10-03T12:06:43.386Z,10.70
2017-10-03T12:09:12.685Z,7.00
2017-10-03T12:11:45.907Z,9.55
2017-10-03T12:14:16.338Z,10.30
2017-10-03T12:16:43.928Z,9.03
2017-10-03T12:19:11.827Z,14.30
2017-10-03T12:21:38.776Z,7.30
2017-10-03T12:24:07.033Z,6.30
2017-10-03T12:26:35.258Z,8.53
2017-10-03T12:29:02.381Z,6.97
2017-10-03T12:31:29.262Z,12.40
2017-10-03T12:33:57.331Z,8.30
2017-10-03T12:36:24.230Z,8.13
2017-10-03T12:38:51.901Z,8.33
2017-10-03T12:41:18.826Z,8.97
2017-10-03T12:43:45.671Z,3.83
2017-10-03T12:46:12.492Z,10.20
2017-10-03T12:48:40.052Z,13.33
2017-10-03T12:51:06.917Z,8.10
2017-10-03T12:53:33.791Z,10.90
2017-10-03T12:56:02.253Z,9.57
2017-10-03T12:58:29.919Z,9.97
2017-10-03T13:00:56.739Z,13.17
2017-10-03T13:03:23.684Z,6.40
2017-10-03T13:05:50.527Z,5.63
2017-10-03T13:08:17.489Z,9.40
2017-10-03T13:10:44.683Z,9.60
2017-10-03T13:13:11.770Z,12.87
2017-10-03T13:15:38.625Z,9.27
2017-10-03T13:18:05.440Z,9.90
2017-10-03T13:20:32.298Z,9.13
2017-10-03T13:22:59.277Z,7.00
2017-10-03T13:25:26.082Z,20.00
2017-10-03T13:27:52.998Z,11.47
2017-10-03T13:30:19.850Z,9.10
2017-10-03T13:32:46.743Z,7.73
2017-10-03T13:35:14.634Z,7.70
2017-10-03T13:37:41.709Z,10.83
2017-10-03T13:40:08.766Z,7.03
2017-10-03T13:42:35.736Z,9.07
2017-10-03T13:45:02.781Z,11.90
2017-10-03T13:47:29.665Z,7.10
2017-10-03T13:49:56.669Z,7.10
2017-10-03T13:52:23.675Z,11.60
2017-10-03T13:54:51.276Z,9.77
2017-10-03T13:57:18.215Z,10.30
2017-10-03T13:59:45.804Z,9.30
2017-10-03T14:02:13.371Z,8.63
2017-10-03T14:04:40.980Z,7.20
2017-10-03T14:07:07.844Z,7.63
2017-10-03T14:09:34.696Z,9.40
2017-10-03T14:12:01.578Z,8.73
2017-10-03T14:14:28.426Z,9.90
2017-10-03T14:16:55.242Z,10.83
2017-10-03T14:19:22.542Z,14.40
2017-10-03T14:21:49.506Z,6.60
2017-10-03T14:24:16.405Z,9.37
2017-10-03T14:26:43.349Z,10.68
2017-10-03T14:29:10.292Z,10.87
2017-10-03T14:31:37.894Z,9.63
2017-10-03T14:34:04.729Z,11.93
2017-10-03T14:36:32.343Z,7.00
2017-10-03T14:38:59.380Z,8.70
2017-10-03T14:41:26.975Z,10.20
2017-10-03T14:43:53.813Z,6.17
2017-10-03T14:46:20.639Z,8.10
2017-10-03T14:48:47.479Z,9.60
2017-10-03T14:51:14.405Z,13.07
2017-10-03T14:53:41.406Z,11.37
2017-10-03T14:56:08.483Z,8.60
2017-10-03T14:58:35.343Z,10.37
2017-10-03T15:01:02.238Z,9.60
2017-10-03T15:03:29.135Z,7.37
2017-10-03T15:05:56.006Z,10.43
2017-10-03T15:08:22.890Z,9.10
2017-10-03T15:10:49.801Z,9.17
2017-10-03T15:13:17.394Z,4.00
2017-10-03T15:15:45.001Z,3.50
2017-10-03T15:18:11.841Z,8.53
2017-10-03T15:20:38.800Z,4.07
2017-10-03T15:23:05.800Z,2.90
2017-10-03T15:25:32.887Z,5.43
2017-10-03T15:27:59.788Z,13.40
2017-10-03T15:30:27.433Z,10.27
2017-10-03T15:32:54.373Z,70.50
2017-10-03T15:35:21.276Z,36.40
2017-10-03T15:37:48.880Z,7.33
2017-10-03T15:40:16.085Z,9.20
2017-10-03T15:42:43.013Z,4.63
2017-10-03T15:45:09.873Z,7.37
2017-10-03T15:47:36.824Z,8.80
2017-10-03T15:50:04.471Z,14.30
2017-10-03T16:05:22.785Z,7.23
2017-10-03T16:07:49.761Z,9.90
2017-10-03T16:10:16.629Z,6.10
2017-10-03T16:12:44.272Z,5.33
2017-10-03T16:15:12.000Z,9.00
2017-10-03T16:17:40.072Z,8.33
2017-10-03T16:20:07.766Z,8.67
2017-10-03T16:22:36.490Z,7.10
2017-10-03T16:25:04.514Z,7.93
2017-10-03T16:27:31.776Z,9.20
2017-10-03T16:29:58.760Z,6.60
2017-10-03T16:32:26.073Z,4.40
2017-10-03T16:34:55.125Z,7.20
2017-10-03T16:37:22.271Z,8.50
2017-10-03T16:39:49.539Z,4.10
2017-10-03T16:42:16.563Z,5.53
2017-10-03T16:44:43.622Z,8.83
2017-10-03T16:47:11.497Z,5.80
2017-10-03T16:49:38.433Z,7.33
2017-10-03T16:52:05.373Z,10.03
2017-10-03T16:54:32.932Z,6.87
2017-10-03T16:57:00.183Z,5.17
2017-10-03T16:59:27.955Z,6.07
2017-10-03T17:01:56.142Z,4.20
2017-10-03T17:04:23.764Z,8.43
2017-10-03T17:06:51.666Z,9.53
2017-10-03T17:09:18.534Z,13.60
2017-10-03T17:11:45.410Z,6.57
2017-10-03T17:14:12.275Z,5.70
2017-10-03T17:16:39.147Z,10.27
2017-10-03T17:21:39.755Z,8.73
2017-10-03T17:24:06.849Z,6.40
2017-10-03T17:26:34.428Z,9.97
2017-10-03T17:29:02.160Z,8.57
2017-10-03T17:31:29.021Z,7.80
2017-10-03T17:33:55.916Z,7.73
2017-10-03T17:36:22.884Z,8.60
2017-10-03T17:38:49.895Z,10.10
2017-10-03T17:41:16.711Z,4.80
2017-10-03T17:43:44.420Z,12.33
2017-10-03T17:46:11.271Z,6.93
2017-10-03T17:48:38.840Z,10.10
2017-10-03T17:51:06.393Z,7.27
2017-10-03T17:53:33.239Z,5.03
2017-10-03T17:56:00.582Z,7.93
2017-10-03T17:58:27.513Z,11.00
2017-10-03T18:00:55.698Z,9.27
2017-10-03T18:03:24.141Z,9.63
2017-10-03T18:05:51.910Z,7.03
2017-10-03T18:08:19.972Z,9.13
2017-10-03T18:10:47.993Z,6.27
2017-10-03T18:13:15.214Z,7.13
2017-10-03T18:15:44.646Z,6.87
2017-10-03T18:18:13.509Z,7.07
2017-10-03T18:20:41.861Z,8.07
2017-10-03T18:23:10.243Z,7.70
2017-10-03T18:25:39.058Z,5.90
2017-10-03T18:28:08.064Z,6.77
2017-10-03T18:30:36.937Z,7.40
2017-10-03T18:33:05.910Z,14.63
2017-10-03T18:35:35.209Z,9.93
2017-10-03T18:38:04.120Z,9.80
2017-10-03T18:40:33.342Z,10.70
2017-10-03T18:43:02.354Z,14.93
2017-10-03T18:45:31.956Z,8.00
2017-10-03T18:48:00.740Z,10.80
2017-10-03T18:50:29.736Z,12.00
2017-10-03T18:52:58.794Z,16.03
2017-10-03T18:55:27.611Z,13.47
2017-10-03T18:57:57.308Z,13.70
2017-10-03T19:00:26.510Z,11.00
2017-10-03T19:02:55.277Z,27.53
2017-10-03T19:05:24.154Z,15.10
2017-10-03T19:07:53.757Z,19.10
2017-10-03T19:10:22.748Z,40.17
2017-10-03T19:12:51.535Z,22.83
2017-10-03T19:15:20.028Z,13.77
2017-10-03T19:17:48.897Z,13.60
2017-10-03T19:20:17.385Z,12.40
2017-10-03T19:22:46.131Z,17.50
2017-10-03T19:25:15.683Z,11.73
2017-10-03T19:27:44.270Z,9.60
2017-10-03T19:30:13.834Z,18.03
2017-10-03T19:32:41.070Z,12.07
2017-10-03T19:35:08.547Z,13.07
2017-10-03T19:37:35.640Z,14.80
2017-10-03T19:40:02.702Z,11.70
2017-10-03T19:42:29.841Z,16.90
2017-10-03T19:44:56.771Z,15.43
2017-10-03T19:47:24.395Z,15.80
2017-10-03T19:49:51.311Z,16.87
2017-10-03T19:52:18.963Z,17.03
2017-10-03T19:54:45.791Z,12.07
2017-10-03T19:57:12.644Z,10.63
2017-10-03T19:59:39.611Z,12.77
2017-10-03T20:02:06.535Z,14.10
2017-10-03T20:04:34.186Z,9.10
2017-10-03T20:07:01.046Z,13.53
2017-10-03T20:09:28.035Z,14.40
2017-10-03T20:11:55.740Z,11.90
2017-10-03T20:14:22.632Z,10.37
2017-10-03T20:16:49.487Z,7.07
2017-10-03T20:19:16.323Z,11.87
2017-10-03T20:21:43.341Z,13.60
2017-10-03T20:24:10.235Z,14.00
2017-10-03T20:26:37.825Z,12.40
2017-10-03T20:29:05.455Z,16.37
2017-10-03T20:31:32.328Z,13.97
2017-10-03T20:33:59.238Z,12.63
2017-10-03T20:36:26.098Z,14.90
2017-10-03T20:38:53.038Z,13.37
2017-10-03T20:41:20.653Z,12.03
2017-10-03T20:43:47.734Z,9.47
2017-10-03T20:46:14.759Z,12.70
2017-10-03T20:48:42.500Z,9.73
2017-10-03T20:51:09.353Z,15.87
2017-10-03T20:53:36.399Z,9.50
2017-10-03T20:56:04.717Z,14.17
2017-10-03T20:58:31.487Z,9.70
2017-10-03T21:00:58.324Z,11.40
2017-10-03T21:03:25.656Z,12.27
2017-10-03T21:05:52.688Z,11.53
2017-10-03T21:08:20.309Z,9.97
2017-10-03T21:10:47.173Z,10.10
2017-10-03T21:13:14.052Z,10.27
2017-10-03T21:15:40.860Z,7.00
2017-10-03T21:18:07.679Z,11.00
2017-10-03T21:20:34.560Z,12.10
2017-10-03T21:23:01.440Z,8.43
2017-10-03T21:25:28.355Z,12.70
2017-10-03T21:27:55.176Z,12.43
2017-10-03T21:30:22.036Z,13.67
2017-10-03T21:32:49.685Z,13.63
2017-10-03T21:35:16.558Z,11.13
2017-10-03T21:37:43.546Z,12.77
2017-10-03T21:40:11.181Z,13.00
2017-10-03T21:56:10.490Z,10.03
2017-10-03T21:58:38.080Z,11.03
2017-10-03T22:01:04.975Z,13.37
2017-10-03T22:03:31.894Z,11.40
2017-10-03T22:05:59.543Z,11.83
2017-10-03T22:08:26.965Z,17.57
2017-10-03T22:10:53.803Z,8.17
2017-10-03T22:13:21.410Z,19.83
2017-10-03T22:15:48.242Z,9.57
2017-10-03T22:18:15.781Z,11.90
2017-10-03T22:20:42.637Z,13.10
2017-10-03T22:23:14.920Z,9.40
2017-10-03T22:25:41.805Z,12.80
2017-10-03T22:28:08.634Z,9.27
2017-10-03T22:30:35.512Z,11.50
2017-10-03T22:33:02.411Z,9.10
2017-10-03T22:35:30.132Z,7.93
2017-10-03T22:37:56.989Z,5.70
2017-10-03T22:40:23.809Z,4.87
2017-10-03T22:42:50.634Z,12.13
2017-10-03T22:45:17.519Z,8.53
2017-10-03T22:47:45.329Z,8.03
2017-10-03T22:50:16.133Z,8.40
2017-10-03T22:52:52.605Z,7.13
2017-10-03T22:55:20.175Z,6.17
2017-10-03T22:57:50.560Z,9.70
2017-10-03T23:00:17.482Z,8.17
2017-10-03T23:02:44.335Z,12.30
2017-10-03T23:05:11.183Z,12.77
2017-10-03T23:07:38.597Z,11.70
2017-10-03T23:10:06.417Z,12.80
2017-10-03T23:12:34.450Z,12.20
2017-10-03T23:15:01.286Z,9.57
2017-10-03T23:17:28.170Z,11.43
2017-10-03T23:19:55.015Z,11.63
2017-10-03T23:22:21.822Z,9.80
2017-10-03T23:24:48.745Z,9.70
2017-10-03T23:27:15.607Z,15.60
2017-10-03T23:29:42.442Z,7.73
2017-10-03T23:32:10.042Z,13.43
2017-10-03T23:34:36.856Z,12.97
2017-10-03T23:37:03.749Z,12.57
2017-10-03T23:39:31.373Z,9.80
2017-10-03T23:41:58.240Z,14.97
2017-10-03T23:44:25.116Z,18.23
2017-10-03T23:46:51.973Z,10.20
2017-10-03T23:49:18.814Z,12.40
2017-10-03T23:51:45.706Z,10.33
2017-10-03T23:54:12.561Z,5.90
2017-10-03T23:56:39.519Z,15.90
2017-10-03T23:59:06.380Z,10.00
